sensor_id;sensor_type;location;lat;lon;timestamp;P1;durP1;ratioP1;P2;durP2;ratioP2
36303;SDS011;22335;49.800;8.596;2023-08-17T00:06:26;5.60;;;5.20;;
36303;SDS011;22335;49.800;8.596;2023-08-17T00:13:10;5.75;;;5.30;;
36303;SDS011;22335;49.800;8.596;2023-08-17T00:19:54;5.70;;;5.20;;
36303;SDS011;22335;49.800;8.596;2023-08-17T00:26:38;6.10;;;5.67;;
36303;SDS011;22335;49.800;8.596;2023-08-17T00:33:21;5.50;;;5.10;;
36303;SDS011;22335;49.800;8.596;2023-08-17T00:40:07;5.13;;;4.80;;
36303;SDS011;22335;49.800;8.596;2023-08-17T00:46:51;5.93;;;5.40;;
36303;SDS011;22335;49.800;8.596;2023-08-17T00:53:35;6.18;;;5.25;;
36303;SDS011;22335;49.800;8.596;2023-08-17T01:00:20;6.00;;;5.40;;
36303;SDS011;22335;49.800;8.596;2023-08-17T01:07:04;17.33;;;5.60;;
36303;SDS011;22335;49.800;8.596;2023-08-17T01:13:49;17.83;;;9.60;;
36303;SDS011;22335;49.800;8.596;2023-08-17T01:20:40;6.72;;;6.00;;
36303;SDS011;22335;49.800;8.596;2023-08-17T01:27:32;7.00;;;5.85;;
36303;SDS011;22335;49.800;8.596;2023-08-17T01:34:22;7.60;;;5.97;;
36303;SDS011;22335;49.800;8.596;2023-08-17T01:41:09;5.80;;;5.40;;
36303;SDS011;22335;49.800;8.596;2023-08-17T01:47:58;8.68;;;5.97;;
36303;SDS011;22335;49.800;8.596;2023-08-17T01:54:41;7.40;;;6.33;;
36303;SDS011;22335;49.800;8.596;2023-08-17T02:01:26;7.28;;;5.90;;
36303;SDS011;22335;49.800;8.596;2023-08-17T02:08:11;8.95;;;6.47;;
36303;SDS011;22335;49.800;8.596;2023-08-17T02:14:55;10.37;;;8.47;;
36303;SDS011;22335;49.800;8.596;2023-08-17T02:21:38;9.52;;;7.45;;
36303;SDS011;22335;49.800;8.596;2023-08-17T02:28:24;8.38;;;7.30;;
36303;SDS011;22335;49.800;8.596;2023-08-17T02:35:07;8.73;;;7.40;;
36303;SDS011;22335;49.800;8.596;2023-08-17T02:41:52;9.63;;;8.40;;
36303;SDS011;22335;49.800;8.596;2023-08-17T03:03:39;9.35;;;8.48;;
36303;SDS011;22335;49.800;8.596;2023-08-17T03:10:25;9.57;;;8.77;;
36303;SDS011;22335;49.800;8.596;2023-08-17T03:17:09;9.85;;;8.95;;
36303;SDS011;22335;49.800;8.596;2023-08-17T03:23:54;16.15;;;14.55;;
36303;SDS011;22335;49.800;8.596;2023-08-17T03:30:37;17.20;;;15.57;;
36303;SDS011;22335;49.800;8.596;2023-08-17T03:37:21;19.35;;;16.83;;
36303;SDS011;22335;49.800;8.596;2023-08-17T03:44:07;17.27;;;15.57;;
36303;SDS011;22335;49.800;8.596;2023-08-17T03:50:51;19.05;;;16.70;;
36303;SDS011;22335;49.800;8.596;2023-08-17T03:57:35;18.75;;;14.80;;
36303;SDS011;22335;49.800;8.596;2023-08-17T04:04:20;16.33;;;14.63;;
36303;SDS011;22335;49.800;8.596;2023-08-17T04:11:04;16.07;;;14.13;;
36303;SDS011;22335;49.800;8.596;2023-08-17T04:17:48;13.13;;;11.90;;
36303;SDS011;22335;49.800;8.596;2023-08-17T04:24:33;14.07;;;12.65;;
36303;SDS011;22335;49.800;8.596;2023-08-17T04:31:16;14.77;;;13.37;;
36303;SDS011;22335;49.800;8.596;2023-08-17T04:38:07;14.73;;;13.32;;
36303;SDS011;22335;49.800;8.596;2023-08-17T04:44:53;13.38;;;12.18;;
36303;SDS011;22335;49.800;8.596;2023-08-17T04:51:37;11.90;;;10.90;;
36303;SDS011;22335;49.800;8.596;2023-08-17T04:58:21;11.68;;;10.57;;
36303;SDS011;22335;49.800;8.596;2023-08-17T05:05:06;11.18;;;10.18;;
36303;SDS011;22335;49.800;8.596;2023-08-17T05:11:54;9.75;;;8.95;;
36303;SDS011;22335;49.800;8.596;2023-08-17T05:18:38;9.05;;;8.35;;
36303;SDS011;22335;49.800;8.596;2023-08-17T05:25:23;8.82;;;8.10;;
36303;SDS011;22335;49.800;8.596;2023-08-17T05:32:07;8.47;;;7.83;;
36303;SDS011;22335;49.800;8.596;2023-08-17T05:38:52;9.27;;;8.50;;
36303;SDS011;22335;49.800;8.596;2023-08-17T05:45:36;10.50;;;8.82;;
36303;SDS011;22335;49.800;8.596;2023-08-17T05:52:20;10.45;;;9.55;;
36303;SDS011;22335;49.800;8.596;2023-08-17T05:59:03;14.23;;;12.73;;
36303;SDS011;22335;49.800;8.596;2023-08-17T06:05:48;13.18;;;12.07;;
36303;SDS011;22335;49.800;8.596;2023-08-17T06:12:35;14.75;;;13.35;;
36303;SDS011;22335;49.800;8.596;2023-08-17T06:19:20;14.13;;;12.70;;
36303;SDS011;22335;49.800;8.596;2023-08-17T06:26:05;12.02;;;10.93;;
36303;SDS011;22335;49.800;8.596;2023-08-17T06:32:50;12.60;;;11.25;;
36303;SDS011;22335;49.800;8.596;2023-08-17T06:39:34;12.87;;;11.87;;
36303;SDS011;22335;49.800;8.596;2023-08-17T06:46:21;14.98;;;13.48;;
36303;SDS011;22335;49.800;8.596;2023-08-17T06:53:05;14.13;;;12.93;;
36303;SDS011;22335;49.800;8.596;2023-08-17T06:59:49;13.25;;;11.95;;
36303;SDS011;22335;49.800;8.596;2023-08-17T07:06:34;13.23;;;12.05;;
36303;SDS011;22335;49.800;8.596;2023-08-17T07:13:17;13.30;;;11.97;;
36303;SDS011;22335;49.800;8.596;2023-08-17T07:20:02;13.27;;;12.07;;
36303;SDS011;22335;49.800;8.596;2023-08-17T07:26:57;13.18;;;12.07;;
36303;SDS011;22335;49.800;8.596;2023-08-17T07:33:40;14.90;;;13.60;;
36303;SDS011;22335;49.800;8.596;2023-08-17T07:40:24;14.38;;;13.07;;
36303;SDS011;22335;49.800;8.596;2023-08-17T07:47:09;14.05;;;12.85;;
36303;SDS011;22335;49.800;8.596;2023-08-17T07:53:52;12.93;;;11.88;;
36303;SDS011;22335;49.800;8.596;2023-08-17T08:00:36;11.48;;;10.43;;
36303;SDS011;22335;49.800;8.596;2023-08-17T08:07:20;11.48;;;10.57;;
36303;SDS011;22335;49.800;8.596;2023-08-17T08:14:05;11.55;;;10.57;;
36303;SDS011;22335;49.800;8.596;2023-08-17T08:20:49;12.73;;;11.70;;
36303;SDS011;22335;49.800;8.596;2023-08-17T08:27:34;11.50;;;10.60;;
36303;SDS011;22335;49.800;8.596;2023-08-17T08:34:17;11.87;;;10.80;;
36303;SDS011;22335;49.800;8.596;2023-08-17T08:41:02;10.90;;;10.00;;
36303;SDS011;22335;49.800;8.596;2023-08-17T08:47:46;10.95;;;10.10;;
36303;SDS011;22335;49.800;8.596;2023-08-17T08:54:30;10.85;;;9.88;;
36303;SDS011;22335;49.800;8.596;2023-08-17T09:01:17;10.00;;;9.10;;
36303;SDS011;22335;49.800;8.596;2023-08-17T09:08:03;8.32;;;7.63;;
36303;SDS011;22335;49.800;8.596;2023-08-17T09:14:50;8.85;;;8.20;;
36303;SDS011;22335;49.800;8.596;2023-08-17T09:21:37;9.10;;;8.40;;
36303;SDS011;22335;49.800;8.596;2023-08-17T09:28:22;8.98;;;8.23;;
36303;SDS011;22335;49.800;8.596;2023-08-17T09:35:06;8.25;;;7.65;;
36303;SDS011;22335;49.800;8.596;2023-08-17T09:41:50;9.87;;;9.17;;
36303;SDS011;22335;49.800;8.596;2023-08-17T09:48:35;8.80;;;8.02;;
36303;SDS011;22335;49.800;8.596;2023-08-17T10:02:03;9.02;;;8.32;;
36303;SDS011;22335;49.800;8.596;2023-08-17T10:09:02;8.38;;;7.65;;
36303;SDS011;22335;49.800;8.596;2023-08-17T10:22:41;9.20;;;8.30;;
36303;SDS011;22335;49.800;8.596;2023-08-17T10:29:34;9.07;;;8.38;;
36303;SDS011;22335;49.800;8.596;2023-08-17T10:36:20;10.20;;;9.38;;
36303;SDS011;22335;49.800;8.596;2023-08-17T10:43:04;10.13;;;9.20;;
36303;SDS011;22335;49.800;8.596;2023-08-17T10:49:49;10.23;;;9.32;;
36303;SDS011;22335;49.800;8.596;2023-08-17T10:56:33;9.57;;;8.75;;
36303;SDS011;22335;49.800;8.596;2023-08-17T11:03:17;9.02;;;8.32;;
36303;SDS011;22335;49.800;8.596;2023-08-17T11:10:10;7.55;;;7.03;;
36303;SDS011;22335;49.800;8.596;2023-08-17T11:16:54;7.68;;;6.95;;
36303;SDS011;22335;49.800;8.596;2023-08-17T11:23:38;7.70;;;7.10;;
36303;SDS011;22335;49.800;8.596;2023-08-17T11:30:24;7.00;;;6.60;;
36303;SDS011;22335;49.800;8.596;2023-08-17T11:37:10;7.90;;;7.20;;
36303;SDS011;22335;49.800;8.596;2023-08-17T11:43:54;7.65;;;6.93;;
36303;SDS011;22335;49.800;8.596;2023-08-17T11:50:39;7.03;;;6.53;;
36303;SDS011;22335;49.800;8.596;2023-08-17T11:57:22;7.30;;;6.75;;
36303;SDS011;22335;49.800;8.596;2023-08-17T12:04:06;6.20;;;5.70;;
36303;SDS011;22335;49.800;8.596;2023-08-17T12:10:51;6.30;;;5.90;;
36303;SDS011;22335;49.800;8.596;2023-08-17T12:17:35;7.47;;;6.90;;
36303;SDS011;22335;49.800;8.596;2023-08-17T12:24:19;7.40;;;6.80;;
36303;SDS011;22335;49.800;8.596;2023-08-17T12:31:03;7.47;;;6.95;;
36303;SDS011;22335;49.800;8.596;2023-08-17T12:44:30;8.63;;;8.02;;
36303;SDS011;22335;49.800;8.596;2023-08-17T12:51:15;8.90;;;8.30;;
36303;SDS011;22335;49.800;8.596;2023-08-17T13:04:42;7.82;;;7.25;;
36303;SDS011;22335;49.800;8.596;2023-08-17T13:11:27;7.28;;;6.78;;
36303;SDS011;22335;49.800;8.596;2023-08-17T13:18:10;7.80;;;7.20;;
36303;SDS011;22335;49.800;8.596;2023-08-17T13:24:54;8.32;;;7.35;;
36303;SDS011;22335;49.800;8.596;2023-08-17T13:31:39;8.30;;;7.32;;
36303;SDS011;22335;49.800;8.596;2023-08-17T13:45:06;7.55;;;7.07;;
36303;SDS011;22335;49.800;8.596;2023-08-17T13:51:52;7.30;;;6.65;;
36303;SDS011;22335;49.800;8.596;2023-08-17T13:58:37;7.90;;;7.30;;
36303;SDS011;22335;49.800;8.596;2023-08-17T14:05:21;6.45;;;6.05;;
36303;SDS011;22335;49.800;8.596;2023-08-17T14:12:06;7.10;;;6.60;;
36303;SDS011;22335;49.800;8.596;2023-08-17T14:18:50;6.50;;;6.10;;
36303;SDS011;22335;49.800;8.596;2023-08-17T14:25:33;6.60;;;6.00;;
36303;SDS011;22335;49.800;8.596;2023-08-17T14:32:18;6.82;;;6.15;;
36303;SDS011;22335;49.800;8.596;2023-08-17T14:39:04;6.57;;;6.07;;
36303;SDS011;22335;49.800;8.596;2023-08-17T14:45:48;7.38;;;6.80;;
36303;SDS011;22335;49.800;8.596;2023-08-17T14:52:32;7.30;;;6.77;;
36303;SDS011;22335;49.800;8.596;2023-08-17T14:59:16;5.97;;;5.25;;
36303;SDS011;22335;49.800;8.596;2023-08-17T15:05:59;6.00;;;5.60;;
36303;SDS011;22335;49.800;8.596;2023-08-17T15:12:44;6.72;;;6.22;;
36303;SDS011;22335;49.800;8.596;2023-08-17T15:19:28;6.03;;;5.53;;
36303;SDS011;22335;49.800;8.596;2023-08-17T15:26:19;6.40;;;5.90;;
36303;SDS011;22335;49.800;8.596;2023-08-17T15:33:04;6.15;;;5.75;;
36303;SDS011;22335;49.800;8.596;2023-08-17T15:39:48;5.93;;;5.43;;
36303;SDS011;22335;49.800;8.596;2023-08-17T15:46:33;6.10;;;5.60;;
36303;SDS011;22335;49.800;8.596;2023-08-17T15:53:17;6.28;;;5.88;;
36303;SDS011;22335;49.800;8.596;2023-08-17T16:00:01;6.93;;;6.43;;
36303;SDS011;22335;49.800;8.596;2023-08-17T16:06:49;5.68;;;5.18;;
36303;SDS011;22335;49.800;8.596;2023-08-17T16:13:33;5.75;;;5.35;;
36303;SDS011;22335;49.800;8.596;2023-08-17T16:20:17;5.20;;;4.90;;
36303;SDS011;22335;49.800;8.596;2023-08-17T16:27:01;6.17;;;5.80;;
36303;SDS011;22335;49.800;8.596;2023-08-17T16:33:46;6.45;;;5.85;;
36303;SDS011;22335;49.800;8.596;2023-08-17T16:40:30;4.97;;;4.60;;
36303;SDS011;22335;49.800;8.596;2023-08-17T16:47:17;6.10;;;5.60;;
36303;SDS011;22335;49.800;8.596;2023-08-17T16:54:02;5.80;;;5.30;;
36303;SDS011;22335;49.800;8.596;2023-08-17T17:00:46;5.53;;;5.13;;
36303;SDS011;22335;49.800;8.596;2023-08-17T17:07:30;6.00;;;5.60;;
36303;SDS011;22335;49.800;8.596;2023-08-17T17:14:15;6.23;;;5.73;;
36303;SDS011;22335;49.800;8.596;2023-08-17T17:20:59;5.70;;;5.32;;
36303;SDS011;22335;49.800;8.596;2023-08-17T17:27:43;6.18;;;5.68;;
36303;SDS011;22335;49.800;8.596;2023-08-17T17:34:28;6.40;;;5.80;;
36303;SDS011;22335;49.800;8.596;2023-08-17T17:41:13;5.85;;;5.38;;
36303;SDS011;22335;49.800;8.596;2023-08-17T17:47:56;5.50;;;5.15;;
36303;SDS011;22335;49.800;8.596;2023-08-17T17:54:41;5.85;;;5.45;;
36303;SDS011;22335;49.800;8.596;2023-08-17T18:01:25;5.63;;;5.25;;
36303;SDS011;22335;49.800;8.596;2023-08-17T18:08:08;5.45;;;5.15;;
36303;SDS011;22335;49.800;8.596;2023-08-17T18:14:53;5.40;;;5.10;;
36303;SDS011;22335;49.800;8.596;2023-08-17T18:21:37;5.47;;;5.00;;
36303;SDS011;22335;49.800;8.596;2023-08-17T18:28:20;5.57;;;5.15;;
36303;SDS011;22335;49.800;8.596;2023-08-17T18:35:06;5.57;;;5.10;;
36303;SDS011;22335;49.800;8.596;2023-08-17T18:41:51;6.68;;;6.20;;
36303;SDS011;22335;49.800;8.596;2023-08-17T18:48:35;5.65;;;5.22;;
36303;SDS011;22335;49.800;8.596;2023-08-17T18:55:20;5.57;;;5.18;;
36303;SDS011;22335;49.800;8.596;2023-08-17T19:02:04;6.32;;;5.82;;
36303;SDS011;22335;49.800;8.596;2023-08-17T19:08:47;6.47;;;5.97;;
36303;SDS011;22335;49.800;8.596;2023-08-17T19:15:32;5.90;;;5.40;;
36303;SDS011;22335;49.800;8.596;2023-08-17T19:22:16;6.03;;;5.53;;
36303;SDS011;22335;49.800;8.596;2023-08-17T19:29:00;6.57;;;6.13;;
36303;SDS011;22335;49.800;8.596;2023-08-17T19:35:45;5.80;;;5.40;;
36303;SDS011;22335;49.800;8.596;2023-08-17T19:42:29;5.95;;;5.53;;
36303;SDS011;22335;49.800;8.596;2023-08-17T19:49:12;8.02;;;6.10;;
36303;SDS011;22335;49.800;8.596;2023-08-17T19:55:57;7.40;;;6.63;;
36303;SDS011;22335;49.800;8.596;2023-08-17T20:02:42;6.72;;;6.22;;
36303;SDS011;22335;49.800;8.596;2023-08-17T20:09:32;6.43;;;5.82;;
36303;SDS011;22335;49.800;8.596;2023-08-17T20:16:17;5.95;;;5.43;;
36303;SDS011;22335;49.800;8.596;2023-08-17T20:23:01;6.53;;;6.00;;
36303;SDS011;22335;49.800;8.596;2023-08-17T20:29:44;6.97;;;6.15;;
36303;SDS011;22335;49.800;8.596;2023-08-17T20:36:29;7.18;;;5.75;;
36303;SDS011;22335;49.800;8.596;2023-08-17T20:49:56;7.20;;;6.70;;
36303;SDS011;22335;49.800;8.596;2023-08-17T20:56:41;7.15;;;6.05;;
36303;SDS011;22335;49.800;8.596;2023-08-17T21:03:25;6.85;;;6.22;;
36303;SDS011;22335;49.800;8.596;2023-08-17T21:10:08;7.35;;;6.68;;
36303;SDS011;22335;49.800;8.596;2023-08-17T21:16:53;6.68;;;6.10;;
36303;SDS011;22335;49.800;8.596;2023-08-17T21:23:37;6.55;;;6.07;;
36303;SDS011;22335;49.800;8.596;2023-08-17T21:30:20;6.30;;;5.80;;
36303;SDS011;22335;49.800;8.596;2023-08-17T21:37:08;6.97;;;6.13;;
36303;SDS011;22335;49.800;8.596;2023-08-17T21:43:51;6.63;;;6.13;;
36303;SDS011;22335;49.800;8.596;2023-08-17T21:50:36;8.43;;;6.15;;
36303;SDS011;22335;49.800;8.596;2023-08-17T21:57:21;6.50;;;6.00;;
36303;SDS011;22335;49.800;8.596;2023-08-17T22:04:05;6.82;;;6.15;;
36303;SDS011;22335;49.800;8.596;2023-08-17T22:10:48;6.20;;;5.65;;
36303;SDS011;22335;49.800;8.596;2023-08-17T22:17:33;6.55;;;5.95;;
36303;SDS011;22335;49.800;8.596;2023-08-17T22:24:16;6.47;;;5.97;;
36303;SDS011;22335;49.800;8.596;2023-08-17T22:31:03;6.88;;;6.20;;
36303;SDS011;22335;49.800;8.596;2023-08-17T22:37:49;7.75;;;5.75;;
36303;SDS011;22335;49.800;8.596;2023-08-17T22:44:33;6.72;;;6.15;;
36303;SDS011;22335;49.800;8.596;2023-08-17T22:51:16;7.35;;;6.38;;
36303;SDS011;22335;49.800;8.596;2023-08-17T22:58:01;12.35;;;7.28;;
36303;SDS011;22335;49.800;8.596;2023-08-17T23:04:46;9.25;;;6.40;;
36303;SDS011;22335;49.800;8.596;2023-08-17T23:11:29;7.18;;;6.60;;
36303;SDS011;22335;49.800;8.596;2023-08-17T23:18:14;7.15;;;6.65;;
36303;SDS011;22335;49.800;8.596;2023-08-17T23:24:58;6.90;;;6.30;;
36303;SDS011;22335;49.800;8.596;2023-08-17T23:31:41;7.95;;;6.72;;
36303;SDS011;22335;49.800;8.596;2023-08-17T23:38:26;10.68;;;6.35;;
36303;SDS011;22335;49.800;8.596;2023-08-17T23:45:09;7.28;;;6.57;;
36303;SDS011;22335;49.800;8.596;2023-08-17T23:51:54;7.88;;;7.05;;
36303;SDS011;22335;49.800;8.596;2023-08-17T23:58:39;7.85;;;7.10;;
